sensor_id;sensor_type;location;lat;lon;timestamp;pressure;altitude;pressure_sealevel;temperature;humidity
65897;BME280;52677;50.898;10.854;2023-09-19T00:01:40;97755.09;;;16.93;100.00
65897;BME280;52677;50.898;10.854;2023-09-19T00:03:41;97754.31;;;16.93;100.00
65897;BME280;52677;50.898;10.854;2023-09-19T00:05:42;97743.25;;;16.89;100.00
65897;BME280;52677;50.898;10.854;2023-09-19T00:07:45;97745.16;;;16.92;100.00
65897;BME280;52677;50.898;10.854;2023-09-19T00:09:46;97742.47;;;16.89;100.00
65897;BME280;52677;50.898;10.854;2023-09-19T00:11:49;97745.34;;;16.85;100.00
65897;BME280;52677;50.898;10.854;2023-09-19T00:13:49;97747.69;;;16.87;100.00
65897;BME280;52677;50.898;10.854;2023-09-19T00:15:51;97754.06;;;16.87;100.00
65897;BME280;52677;50.898;10.854;2023-09-19T00:17:52;97752.59;;;16.82;100.00
65897;BME280;52677;50.898;10.854;2023-09-19T00:19:52;97750.25;;;16.81;100.00
65897;BME280;52677;50.898;10.854;2023-09-19T00:21:52;97751.09;;;16.78;100.00
65897;BME280;52677;50.898;10.854;2023-09-19T00:23:53;97742.97;;;16.83;100.00
65897;BME280;52677;50.898;10.854;2023-09-19T00:25:58;97738.97;;;16.84;100.00
65897;BME280;52677;50.898;10.854;2023-09-19T00:27:59;97733.47;;;16.81;100.00
65897;BME280;52677;50.898;10.854;2023-09-19T00:29:59;97746.28;;;16.78;100.00
65897;BME280;52677;50.898;10.854;2023-09-19T00:32:00;97727.97;;;16.77;100.00
65897;BME280;52677;50.898;10.854;2023-09-19T00:34:03;97737.13;;;16.78;100.00
65897;BME280;52677;50.898;10.854;2023-09-19T00:36:04;97730.06;;;16.73;100.00
65897;BME280;52677;50.898;10.854;2023-09-19T00:38:05;97735.34;;;16.68;100.00
65897;BME280;52677;50.898;10.854;2023-09-19T00:40:08;97737.03;;;16.65;100.00
65897;BME280;52677;50.898;10.854;2023-09-19T00:42:18;97748.97;;;16.66;100.00
65897;BME280;52677;50.898;10.854;2023-09-19T00:44:20;97747.03;;;16.63;100.00
65897;BME280;52677;50.898;10.854;2023-09-19T00:46:23;97748.72;;;16.60;100.00
65897;BME280;52677;50.898;10.854;2023-09-19T00:48:25;97748.44;;;16.54;100.00
65897;BME280;52677;50.898;10.854;2023-09-19T00:50:28;97756.03;;;16.54;100.00
65897;BME280;52677;50.898;10.854;2023-09-19T00:52:29;97755.00;;;16.48;100.00
65897;BME280;52677;50.898;10.854;2023-09-19T00:54:30;97754.63;;;16.46;100.00
65897;BME280;52677;50.898;10.854;2023-09-19T00:56:30;97760.59;;;16.48;100.00
65897;BME280;52677;50.898;10.854;2023-09-19T00:58:32;97757.25;;;16.53;100.00
65897;BME280;52677;50.898;10.854;2023-09-19T01:00:34;97763.72;;;16.50;100.00
65897;BME280;52677;50.898;10.854;2023-09-19T01:02:35;97766.16;;;16.48;100.00
65897;BME280;52677;50.898;10.854;2023-09-19T01:04:35;97772.59;;;16.45;100.00
65897;BME280;52677;50.898;10.854;2023-09-19T01:06:36;97773.47;;;16.42;100.00
65897;BME280;52677;50.898;10.854;2023-09-19T01:08:36;97781.41;;;16.43;100.00
65897;BME280;52677;50.898;10.854;2023-09-19T01:10:44;97775.56;;;16.38;100.00
65897;BME280;52677;50.898;10.854;2023-09-19T01:13:05;97777.56;;;16.37;100.00
65897;BME280;52677;50.898;10.854;2023-09-19T01:17:39;97790.38;;;16.35;100.00
65897;BME280;52677;50.898;10.854;2023-09-19T01:22:21;97789.75;;;16.27;100.00
65897;BME280;52677;50.898;10.854;2023-09-19T01:31:31;97805.19;;;16.15;100.00
65897;BME280;52677;50.898;10.854;2023-09-19T01:33:58;97809.19;;;16.14;100.00
65897;BME280;52677;50.898;10.854;2023-09-19T01:35:59;97803.22;;;16.12;100.00
65897;BME280;52677;50.898;10.854;2023-09-19T01:37:59;97804.03;;;16.13;100.00
65897;BME280;52677;50.898;10.854;2023-09-19T01:40:07;97803.66;;;16.11;100.00
65897;BME280;52677;50.898;10.854;2023-09-19T01:42:35;97820.84;;;16.09;100.00
65897;BME280;52677;50.898;10.854;2023-09-19T01:46:49;97817.06;;;15.99;100.00
65897;BME280;52677;50.898;10.854;2023-09-19T01:51:07;97819.06;;;15.99;100.00
65897;BME280;52677;50.898;10.854;2023-09-19T01:53:33;97828.56;;;16.01;100.00
65897;BME280;52677;50.898;10.854;2023-09-19T01:55:37;97826.13;;;16.04;100.00
65897;BME280;52677;50.898;10.854;2023-09-19T01:57:58;97833.38;;;16.01;100.00
65897;BME280;52677;50.898;10.854;2023-09-19T02:00:06;97831.84;;;15.96;100.00
65897;BME280;52677;50.898;10.854;2023-09-19T02:02:07;97830.66;;;15.97;100.00
65897;BME280;52677;50.898;10.854;2023-09-19T02:04:09;97829.06;;;15.96;100.00
65897;BME280;52677;50.898;10.854;2023-09-19T02:06:14;97826.28;;;15.96;100.00
65897;BME280;52677;50.898;10.854;2023-09-19T02:08:17;97833.47;;;15.97;100.00
65897;BME280;52677;50.898;10.854;2023-09-19T02:10:20;97834.31;;;15.94;100.00
65897;BME280;52677;50.898;10.854;2023-09-19T02:12:20;97835.09;;;15.95;100.00
65897;BME280;52677;50.898;10.854;2023-09-19T02:14:20;97828.22;;;15.99;100.00
65897;BME280;52677;50.898;10.854;2023-09-19T02:16:22;97827.34;;;16.02;100.00
65897;BME280;52677;50.898;10.854;2023-09-19T02:18:23;97825.00;;;16.01;100.00
65897;BME280;52677;50.898;10.854;2023-09-19T02:20:23;97835.38;;;16.00;100.00
65897;BME280;52677;50.898;10.854;2023-09-19T02:22:23;97836.59;;;15.99;100.00
65897;BME280;52677;50.898;10.854;2023-09-19T02:24:24;97846.41;;;16.08;100.00
65897;BME280;52677;50.898;10.854;2023-09-19T02:26:26;97843.66;;;16.04;100.00
65897;BME280;52677;50.898;10.854;2023-09-19T02:28:27;97851.25;;;16.04;100.00
65897;BME280;52677;50.898;10.854;2023-09-19T02:30:32;97846.41;;;16.08;100.00
65897;BME280;52677;50.898;10.854;2023-09-19T02:32:33;97840.47;;;16.06;100.00
65897;BME280;52677;50.898;10.854;2023-09-19T02:34:36;97850.41;;;16.07;100.00
65897;BME280;52677;50.898;10.854;2023-09-19T02:36:39;97843.16;;;16.09;100.00
65897;BME280;52677;50.898;10.854;2023-09-19T02:38:39;97846.03;;;16.06;100.00
65897;BME280;52677;50.898;10.854;2023-09-19T02:40:40;97842.38;;;16.09;100.00
65897;BME280;52677;50.898;10.854;2023-09-19T02:42:42;97849.25;;;16.04;100.00
65897;BME280;52677;50.898;10.854;2023-09-19T02:44:42;97849.31;;;16.00;100.00
65897;BME280;52677;50.898;10.854;2023-09-19T02:46:43;97854.91;;;16.00;100.00
65897;BME280;52677;50.898;10.854;2023-09-19T02:48:43;97857.69;;;16.00;100.00
65897;BME280;52677;50.898;10.854;2023-09-19T02:50:44;97855.69;;;16.01;100.00
65897;BME280;52677;50.898;10.854;2023-09-19T02:52:46;97866.38;;;16.06;100.00
65897;BME280;52677;50.898;10.854;2023-09-19T02:54:49;97856.78;;;16.07;100.00
65897;BME280;52677;50.898;10.854;2023-09-19T02:56:50;97855.59;;;16.05;100.00
65897;BME280;52677;50.898;10.854;2023-09-19T02:58:51;97858.13;;;15.99;100.00
65897;BME280;52677;50.898;10.854;2023-09-19T03:00:51;97863.34;;;15.97;100.00
65897;BME280;52677;50.898;10.854;2023-09-19T03:02:55;97860.63;;;15.93;100.00
65897;BME280;52677;50.898;10.854;2023-09-19T03:04:55;97863.84;;;15.92;100.00
65897;BME280;52677;50.898;10.854;2023-09-19T03:06:56;97870.13;;;15.96;100.00
65897;BME280;52677;50.898;10.854;2023-09-19T03:09:00;97861.41;;;15.94;100.00
65897;BME280;52677;50.898;10.854;2023-09-19T03:11:00;97859.94;;;15.89;100.00
65897;BME280;52677;50.898;10.854;2023-09-19T03:13:02;97865.41;;;15.93;100.00
65897;BME280;52677;50.898;10.854;2023-09-19T03:15:03;97866.34;;;15.86;100.00
65897;BME280;52677;50.898;10.854;2023-09-19T03:17:04;97876.56;;;15.93;100.00
65897;BME280;52677;50.898;10.854;2023-09-19T03:19:05;97875.06;;;15.88;100.00
65897;BME280;52677;50.898;10.854;2023-09-19T03:21:05;97871.56;;;15.84;100.00
65897;BME280;52677;50.898;10.854;2023-09-19T03:23:05;97874.50;;;15.77;100.00
65897;BME280;52677;50.898;10.854;2023-09-19T03:25:07;97872.69;;;15.67;100.00
65897;BME280;52677;50.898;10.854;2023-09-19T03:27:12;97878.78;;;15.58;100.00
65897;BME280;52677;50.898;10.854;2023-09-19T03:29:16;97881.22;;;15.56;100.00
65897;BME280;52677;50.898;10.854;2023-09-19T03:31:17;97878.06;;;15.54;100.00
65897;BME280;52677;50.898;10.854;2023-09-19T03:33:17;97894.91;;;15.47;100.00
65897;BME280;52677;50.898;10.854;2023-09-19T03:35:18;97891.09;;;15.37;100.00
65897;BME280;52677;50.898;10.854;2023-09-19T03:37:19;97899.53;;;15.34;100.00
65897;BME280;52677;50.898;10.854;2023-09-19T03:39:19;97899.75;;;15.20;100.00
65897;BME280;52677;50.898;10.854;2023-09-19T03:41:20;97889.91;;;15.15;100.00
65897;BME280;52677;50.898;10.854;2023-09-19T03:43:20;97897.94;;;15.09;100.00
65897;BME280;52677;50.898;10.854;2023-09-19T03:45:20;97888.13;;;15.01;100.00
65897;BME280;52677;50.898;10.854;2023-09-19T03:47:21;97888.91;;;15.02;100.00
65897;BME280;52677;50.898;10.854;2023-09-19T03:49:21;97893.31;;;14.99;100.00
65897;BME280;52677;50.898;10.854;2023-09-19T03:51:22;97894.03;;;15.03;100.00
65897;BME280;52677;50.898;10.854;2023-09-19T03:53:22;97891.63;;;15.05;100.00
65897;BME280;52677;50.898;10.854;2023-09-19T03:55:22;97892.41;;;15.06;100.00
65897;BME280;52677;50.898;10.854;2023-09-19T03:57:23;97893.56;;;15.08;100.00
65897;BME280;52677;50.898;10.854;2023-09-19T03:59:23;97895.50;;;15.11;100.00
65897;BME280;52677;50.898;10.854;2023-09-19T04:01:23;97904.22;;;15.13;100.00
65897;BME280;52677;50.898;10.854;2023-09-19T04:03:24;97899.81;;;15.16;100.00
65897;BME280;52677;50.898;10.854;2023-09-19T04:05:34;97903.03;;;15.14;100.00
65897;BME280;52677;50.898;10.854;2023-09-19T04:07:34;97899.75;;;15.20;100.00
65897;BME280;52677;50.898;10.854;2023-09-19T04:09:35;97904.44;;;15.26;100.00
65897;BME280;52677;50.898;10.854;2023-09-19T04:11:35;97896.75;;;15.34;100.00
65897;BME280;52677;50.898;10.854;2023-09-19T04:13:36;97897.97;;;15.33;100.00
65897;BME280;52677;50.898;10.854;2023-09-19T04:15:36;97908.50;;;15.45;100.00
65897;BME280;52677;50.898;10.854;2023-09-19T04:17:37;97907.28;;;15.46;100.00
65897;BME280;52677;50.898;10.854;2023-09-19T04:19:38;97910.84;;;15.46;100.00
65897;BME280;52677;50.898;10.854;2023-09-19T04:21:38;97908.50;;;15.45;100.00
65897;BME280;52677;50.898;10.854;2023-09-19T04:23:39;97912.84;;;15.46;100.00
65897;BME280;52677;50.898;10.854;2023-09-19T04:25:40;97920.00;;;15.47;100.00
65897;BME280;52677;50.898;10.854;2023-09-19T04:27:41;97915.28;;;15.44;100.00
65897;BME280;52677;50.898;10.854;2023-09-19T04:29:44;97913.63;;;15.46;100.00
65897;BME280;52677;50.898;10.854;2023-09-19T04:31:44;97909.34;;;15.42;100.00
65897;BME280;52677;50.898;10.854;2023-09-19T04:33:46;97916.56;;;15.39;100.00
65897;BME280;52677;50.898;10.854;2023-09-19T04:35:49;97912.72;;;15.30;100.00
65897;BME280;52677;50.898;10.854;2023-09-19T04:37:50;97920.78;;;15.24;100.00
65897;BME280;52677;50.898;10.854;2023-09-19T04:39:50;97917.34;;;15.16;100.00
65897;BME280;52677;50.898;10.854;2023-09-19T04:41:51;97922.22;;;15.09;100.00
65897;BME280;52677;50.898;10.854;2023-09-19T04:43:51;97925.91;;;15.02;100.00
65897;BME280;52677;50.898;10.854;2023-09-19T04:45:52;97929.97;;;14.98;100.00
65897;BME280;52677;50.898;10.854;2023-09-19T04:47:55;97931.63;;;14.92;100.00
65897;BME280;52677;50.898;10.854;2023-09-19T04:49:56;97933.31;;;14.85;100.00
65897;BME280;52677;50.898;10.854;2023-09-19T04:51:59;97933.63;;;14.91;100.00
65897;BME280;52677;50.898;10.854;2023-09-19T04:53:59;97936.84;;;14.89;100.00
65897;BME280;52677;50.898;10.854;2023-09-19T04:56:00;97940.81;;;14.88;100.00
65897;BME280;52677;50.898;10.854;2023-09-19T04:58:00;97944.03;;;14.87;100.00
65897;BME280;52677;50.898;10.854;2023-09-19T05:00:01;97944.09;;;14.83;100.00
65897;BME280;52677;50.898;10.854;2023-09-19T05:02:02;97942.88;;;14.84;100.00
65897;BME280;52677;50.898;10.854;2023-09-19T05:04:03;97941.25;;;14.87;100.00
65897;BME280;52677;50.898;10.854;2023-09-19T05:06:05;97948.34;;;14.92;100.00
65897;BME280;52677;50.898;10.854;2023-09-19T05:08:05;97949.16;;;14.88;100.00
65897;BME280;52677;50.898;10.854;2023-09-19T05:10:06;97964.72;;;14.86;100.00
65897;BME280;52677;50.898;10.854;2023-09-19T05:12:07;97965.50;;;14.86;100.00
65897;BME280;52677;50.898;10.854;2023-09-19T05:14:07;97962.41;;;14.81;100.00
65897;BME280;52677;50.898;10.854;2023-09-19T05:16:07;97963.63;;;14.80;100.00
65897;BME280;52677;50.898;10.854;2023-09-19T05:18:10;97968.78;;;14.81;100.00
65897;BME280;52677;50.898;10.854;2023-09-19T05:20:11;97965.66;;;14.76;100.00
65897;BME280;52677;50.898;10.854;2023-09-19T05:22:15;97966.88;;;14.75;100.00
65897;BME280;52677;50.898;10.854;2023-09-19T05:24:15;97968.88;;;14.74;100.00
65897;BME280;52677;50.898;10.854;2023-09-19T05:26:17;97983.94;;;14.77;100.00
65897;BME280;52677;50.898;10.854;2023-09-19T05:28:18;97985.53;;;14.78;100.00
65897;BME280;52677;50.898;10.854;2023-09-19T05:30:18;97985.50;;;14.81;100.00
65897;BME280;52677;50.898;10.854;2023-09-19T05:32:20;97982.19;;;14.90;100.00
65897;BME280;52677;50.898;10.854;2023-09-19T05:34:20;97984.19;;;14.89;100.00
65897;BME280;52677;50.898;10.854;2023-09-19T05:36:20;97986.16;;;14.89;100.00
65897;BME280;52677;50.898;10.854;2023-09-19T05:38:21;97990.13;;;14.92;100.00
65897;BME280;52677;50.898;10.854;2023-09-19T05:40:21;97993.63;;;14.96;100.00
65897;BME280;52677;50.898;10.854;2023-09-19T05:42:22;97984.81;;;15.01;100.00
65897;BME280;52677;50.898;10.854;2023-09-19T05:44:22;97989.91;;;15.06;100.00
65897;BME280;52677;50.898;10.854;2023-09-19T05:46:22;97985.88;;;15.10;100.00
65897;BME280;52677;50.898;10.854;2023-09-19T05:48:23;97991.81;;;15.12;100.00
65897;BME280;52677;50.898;10.854;2023-09-19T05:50:23;97987.78;;;15.17;100.00
65897;BME280;52677;50.898;10.854;2023-09-19T05:52:24;97995.28;;;15.20;100.00
65897;BME280;52677;50.898;10.854;2023-09-19T05:54:25;97992.84;;;15.22;100.00
65897;BME280;52677;50.898;10.854;2023-09-19T05:56:26;97998.81;;;15.24;100.00
65897;BME280;52677;50.898;10.854;2023-09-19T05:58:27;97990.81;;;15.26;100.00
65897;BME280;52677;50.898;10.854;2023-09-19T06:00:27;98003.19;;;15.25;100.00
65897;BME280;52677;50.898;10.854;2023-09-19T06:02:29;97994.41;;;15.27;100.00
65897;BME280;52677;50.898;10.854;2023-09-19T06:04:30;98006.69;;;15.29;100.00
65897;BME280;52677;50.898;10.854;2023-09-19T06:06:30;97989.97;;;15.29;100.00
65897;BME280;52677;50.898;10.854;2023-09-19T06:08:31;97984.34;;;15.33;100.00
65897;BME280;52677;50.898;10.854;2023-09-19T06:10:31;97989.16;;;15.32;100.00
65897;BME280;52677;50.898;10.854;2023-09-19T06:12:32;97992.28;;;15.34;100.00
65897;BME280;52677;50.898;10.854;2023-09-19T06:14:35;97991.06;;;15.35;100.00
65897;BME280;52677;50.898;10.854;2023-09-19T06:16:36;97993.78;;;15.39;100.00
65897;BME280;52677;50.898;10.854;2023-09-19T06:18:38;97992.63;;;15.40;100.00
65897;BME280;52677;50.898;10.854;2023-09-19T06:20:38;97993.41;;;15.40;100.00
65897;BME280;52677;50.898;10.854;2023-09-19T06:22:45;97986.53;;;15.45;100.00
65897;BME280;52677;50.898;10.854;2023-09-19T06:24:46;97985.28;;;15.50;100.00
65897;BME280;52677;50.898;10.854;2023-09-19T06:26:47;97987.28;;;15.49;100.00
65897;BME280;52677;50.898;10.854;2023-09-19T06:28:48;97994.78;;;15.52;100.00
65897;BME280;52677;50.898;10.854;2023-09-19T06:30:48;98015.47;;;15.55;100.00
65897;BME280;52677;50.898;10.854;2023-09-19T06:32:48;98005.09;;;15.55;100.00
65897;BME280;52677;50.898;10.854;2023-09-19T06:34:52;98004.69;;;15.57;100.00
65897;BME280;52677;50.898;10.854;2023-09-19T06:36:54;98004.63;;;15.64;100.00
65897;BME280;52677;50.898;10.854;2023-09-19T06:38:55;98010.56;;;15.66;100.00
65897;BME280;52677;50.898;10.854;2023-09-19T06:40:56;98002.97;;;15.66;100.00
65897;BME280;52677;50.898;10.854;2023-09-19T06:42:57;98012.81;;;15.75;100.00
65897;BME280;52677;50.898;10.854;2023-09-19T06:44:57;98017.47;;;15.81;100.00
65897;BME280;52677;50.898;10.854;2023-09-19T06:46:58;98019.84;;;15.83;100.00
65897;BME280;52677;50.898;10.854;2023-09-19T06:48:58;98023.34;;;15.87;100.00
65897;BME280;52677;50.898;10.854;2023-09-19T06:50:59;98020.97;;;15.85;100.00
65897;BME280;52677;50.898;10.854;2023-09-19T06:53:04;98028.47;;;15.88;100.00
65897;BME280;52677;50.898;10.854;2023-09-19T06:55:05;98028.91;;;15.87;100.00
65897;BME280;52677;50.898;10.854;2023-09-19T06:57:06;98034.38;;;15.94;100.00
65897;BME280;52677;50.898;10.854;2023-09-19T06:59:09;98041.53;;;15.95;100.00
65897;BME280;52677;50.898;10.854;2023-09-19T07:01:10;98036.25;;;16.00;100.00
65897;BME280;52677;50.898;10.854;2023-09-19T07:03:10;98043.41;;;16.01;100.00
65897;BME280;52677;50.898;10.854;2023-09-19T07:05:13;98044.63;;;16.00;100.00
65897;BME280;52677;50.898;10.854;2023-09-19T07:07:15;98056.94;;;16.03;100.00
65897;BME280;52677;50.898;10.854;2023-09-19T07:09:17;98060.09;;;16.05;100.00
65897;BME280;52677;50.898;10.854;2023-09-19T07:11:18;98063.97;;;16.11;100.00
65897;BME280;52677;50.898;10.854;2023-09-19T07:13:19;98064.06;;;16.08;100.00
65897;BME280;52677;50.898;10.854;2023-09-19T07:15:20;98071.56;;;16.11;100.00
65897;BME280;52677;50.898;10.854;2023-09-19T07:17:21;98071.09;;;16.16;100.00
65897;BME280;52677;50.898;10.854;2023-09-19T07:19:24;98075.75;;;16.22;100.00
65897;BME280;52677;50.898;10.854;2023-09-19T07:21:24;98082.91;;;16.23;100.00
65897;BME280;52677;50.898;10.854;2023-09-19T07:23:24;98085.59;;;16.31;100.00
65897;BME280;52677;50.898;10.854;2023-09-19T07:25:27;98083.16;;;16.33;100.00
65897;BME280;52677;50.898;10.854;2023-09-19T07:27:27;98097.81;;;16.37;100.00
65897;BME280;52677;50.898;10.854;2023-09-19T07:29:28;98101.34;;;16.41;100.00
65897;BME280;52677;50.898;10.854;2023-09-19T07:31:28;98112.88;;;16.43;100.00
65897;BME280;52677;50.898;10.854;2023-09-19T07:33:29;98116.16;;;16.38;100.00
65897;BME280;52677;50.898;10.854;2023-09-19T07:35:29;98118.22;;;16.34;100.00
65897;BME280;52677;50.898;10.854;2023-09-19T07:37:30;98127.38;;;16.34;100.00
65897;BME280;52677;50.898;10.854;2023-09-19T07:39:33;98128.25;;;16.31;100.00
65897;BME280;52677;50.898;10.854;2023-09-19T07:41:33;98125.50;;;16.27;100.00
65897;BME280;52677;50.898;10.854;2023-09-19T07:43:35;98131.94;;;16.24;100.00
65897;BME280;52677;50.898;10.854;2023-09-19T07:45:35;98132.66;;;16.28;100.00
65897;BME280;52677;50.898;10.854;2023-09-19T07:47:36;98135.44;;;16.28;100.00
65897;BME280;52677;50.898;10.854;2023-09-19T07:49:36;98132.19;;;16.34;100.00
65897;BME280;52677;50.898;10.854;2023-09-19T07:51:37;98148.88;;;16.37;100.00
65897;BME280;52677;50.898;10.854;2023-09-19T07:53:38;98146.03;;;16.41;100.00
65897;BME280;52677;50.898;10.854;2023-09-19T07:55:39;98157.06;;;16.48;100.00
65897;BME280;52677;50.898;10.854;2023-09-19T07:57:41;98146.03;;;16.41;100.00
65897;BME280;52677;50.898;10.854;2023-09-19T07:59:42;98150.28;;;16.49;100.00
65897;BME280;52677;50.898;10.854;2023-09-19T08:01:43;98142.59;;;16.53;100.00
65897;BME280;52677;50.898;10.854;2023-09-19T08:03:44;98145.91;;;16.48;100.00
65897;BME280;52677;50.898;10.854;2023-09-19T08:05:45;98154.53;;;16.57;100.00
65897;BME280;52677;50.898;10.854;2023-09-19T08:07:45;98156.97;;;16.55;100.00
65897;BME280;52677;50.898;10.854;2023-09-19T08:09:48;98158.94;;;16.54;100.00
65897;BME280;52677;50.898;10.854;2023-09-19T08:11:49;98147.38;;;16.56;100.00
65897;BME280;52677;50.898;10.854;2023-09-19T08:13:50;98154.56;;;16.53;100.00
65897;BME280;52677;50.898;10.854;2023-09-19T08:15:51;98162.53;;;16.55;100.00
65897;BME280;52677;50.898;10.854;2023-09-19T08:17:55;98162.78;;;16.41;100.00
65897;BME280;52677;50.898;10.854;2023-09-19T08:19:55;98160.22;;;16.50;100.00
65897;BME280;52677;50.898;10.854;2023-09-19T08:21:56;98165.47;;;16.48;100.00
65897;BME280;52677;50.898;10.854;2023-09-19T08:23:58;98167.03;;;16.49;100.00
65897;BME280;52677;50.898;10.854;2023-09-19T08:25:58;98177.69;;;16.54;100.00
65897;BME280;52677;50.898;10.854;2023-09-19T08:28:03;98182.38;;;16.61;100.00
65897;BME280;52677;50.898;10.854;2023-09-19T08:30:08;98163.56;;;16.65;100.00
65897;BME280;52677;50.898;10.854;2023-09-19T08:32:10;98175.00;;;16.74;100.00
65897;BME280;52677;50.898;10.854;2023-09-19T08:34:11;98162.41;;;16.85;100.00
65897;BME280;52677;50.898;10.854;2023-09-19T08:36:11;98160.25;;;16.93;99.53
65897;BME280;52677;50.898;10.854;2023-09-19T08:38:14;98150.88;;;17.03;99.70
65897;BME280;52677;50.898;10.854;2023-09-19T08:40:14;98165.16;;;17.09;98.17
65897;BME280;52677;50.898;10.854;2023-09-19T08:42:15;98171.84;;;17.15;93.96
65897;BME280;52677;50.898;10.854;2023-09-19T08:44:17;98158.56;;;17.19;96.11
65897;BME280;52677;50.898;10.854;2023-09-19T08:46:18;98159.00;;;17.18;94.79
65897;BME280;52677;50.898;10.854;2023-09-19T08:48:25;98169.16;;;17.28;97.07
65897;BME280;52677;50.898;10.854;2023-09-19T08:50:28;98166.56;;;17.37;96.47
65897;BME280;52677;50.898;10.854;2023-09-19T08:52:37;98168.88;;;17.42;96.90
65897;BME280;52677;50.898;10.854;2023-09-19T08:54:41;98180.34;;;17.48;96.64
65897;BME280;52677;50.898;10.854;2023-09-19T08:56:41;98185.50;;;17.49;94.88
65897;BME280;52677;50.898;10.854;2023-09-19T08:58:46;98181.28;;;17.41;95.16
65897;BME280;52677;50.898;10.854;2023-09-19T09:00:48;98182.22;;;17.34;95.40
65897;BME280;52677;50.898;10.854;2023-09-19T09:02:51;98186.72;;;17.28;96.46
65897;BME280;52677;50.898;10.854;2023-09-19T09:04:53;98187.47;;;17.32;96.55
65897;BME280;52677;50.898;10.854;2023-09-19T09:06:55;98181.44;;;17.34;98.38
65897;BME280;52677;50.898;10.854;2023-09-19T09:08:56;98176.84;;;17.44;97.78
65897;BME280;52677;50.898;10.854;2023-09-19T09:10:56;98189.88;;;17.50;95.90
65897;BME280;52677;50.898;10.854;2023-09-19T09:12:58;98182.03;;;17.61;95.10
65897;BME280;52677;50.898;10.854;2023-09-19T09:14:58;98180.47;;;17.60;95.17
65897;BME280;52677;50.898;10.854;2023-09-19T09:16:59;98181.63;;;17.63;94.39
65897;BME280;52677;50.898;10.854;2023-09-19T09:18:59;98192.31;;;17.68;94.91
65897;BME280;52677;50.898;10.854;2023-09-19T09:21:00;98184.69;;;17.68;91.55
65897;BME280;52677;50.898;10.854;2023-09-19T09:23:00;98187.94;;;17.67;93.51
65897;BME280;52677;50.898;10.854;2023-09-19T09:25:03;98195.53;;;17.66;94.09
65897;BME280;52677;50.898;10.854;2023-09-19T09:27:05;98187.72;;;17.58;95.25
65897;BME280;52677;50.898;10.854;2023-09-19T09:29:11;98189.66;;;17.61;95.75
65897;BME280;52677;50.898;10.854;2023-09-19T09:31:24;98185.16;;;17.47;93.93
65897;BME280;52677;50.898;10.854;2023-09-19T09:33:25;98181.34;;;17.57;94.83
65897;BME280;52677;50.898;10.854;2023-09-19T09:35:25;98199.88;;;17.71;95.37
65897;BME280;52677;50.898;10.854;2023-09-19T09:37:28;98188.28;;;17.69;96.48
65897;BME280;52677;50.898;10.854;2023-09-19T09:39:30;98191.50;;;17.67;96.23
65897;BME280;52677;50.898;10.854;2023-09-19T09:41:37;98193.19;;;17.65;95.47
65897;BME280;52677;50.898;10.854;2023-09-19T09:43:40;98182.03;;;17.61;97.42
65897;BME280;52677;50.898;10.854;2023-09-19T09:45:41;98195.53;;;17.66;97.00
65897;BME280;52677;50.898;10.854;2023-09-19T09:47:51;98190.97;;;17.56;97.39
65897;BME280;52677;50.898;10.854;2023-09-19T09:49:57;98190.69;;;17.51;96.03
65897;BME280;52677;50.898;10.854;2023-09-19T09:52:07;98178.84;;;17.63;97.17
65897;BME280;52677;50.898;10.854;2023-09-19T09:54:10;98184.28;;;17.70;97.84
65897;BME280;52677;50.898;10.854;2023-09-19T09:56:12;98178.75;;;17.66;96.82
65897;BME280;52677;50.898;10.854;2023-09-19T09:58:17;98178.69;;;17.70;97.66
65897;BME280;52677;50.898;10.854;2023-09-19T10:00:18;98186.50;;;17.79;99.44
65897;BME280;52677;50.898;10.854;2023-09-19T10:02:30;98186.69;;;17.72;96.65
65897;BME280;52677;50.898;10.854;2023-09-19T10:04:36;98183.97;;;17.84;98.50
65897;BME280;52677;50.898;10.854;2023-09-19T10:06:44;98186.63;;;17.91;97.07
65897;BME280;52677;50.898;10.854;2023-09-19T10:09:09;98186.31;;;18.06;98.92
65897;BME280;52677;50.898;10.854;2023-09-19T10:11:29;98185.44;;;18.09;95.37
65897;BME280;52677;50.898;10.854;2023-09-19T10:13:31;98182.13;;;18.14;96.00
65897;BME280;52677;50.898;10.854;2023-09-19T10:15:33;98180.00;;;18.18;96.53
65897;BME280;52677;50.898;10.854;2023-09-19T10:17:36;98178.44;;;18.17;96.04
65897;BME280;52677;50.898;10.854;2023-09-19T10:21:38;98173.00;;;18.26;96.80
65897;BME280;52677;50.898;10.854;2023-09-19T10:23:40;98186.22;;;18.42;98.30
65897;BME280;52677;50.898;10.854;2023-09-19T10:25:44;98186.41;;;18.51;95.22
65897;BME280;52677;50.898;10.854;2023-09-19T10:27:47;98177.56;;;18.36;94.50
65897;BME280;52677;50.898;10.854;2023-09-19T10:29:49;98179.84;;;18.41;94.78
65897;BME280;52677;50.898;10.854;2023-09-19T10:31:56;98189.75;;;18.46;95.65
65897;BME280;52677;50.898;10.854;2023-09-19T10:33:58;98182.47;;;18.48;94.98
65897;BME280;52677;50.898;10.854;2023-09-19T10:36:00;98172.50;;;18.47;94.86
65897;BME280;52677;50.898;10.854;2023-09-19T10:38:02;98168.66;;;18.41;94.74
65897;BME280;52677;50.898;10.854;2023-09-19T10:40:04;98186.41;;;18.51;95.91
65897;BME280;52677;50.898;10.854;2023-09-19T10:42:11;98178.78;;;18.51;92.52
65897;BME280;52677;50.898;10.854;2023-09-19T10:44:18;98164.00;;;18.51;95.00
65897;BME280;52677;50.898;10.854;2023-09-19T10:46:21;98180.91;;;18.64;96.03
65897;BME280;52677;50.898;10.854;2023-09-19T10:48:21;98178.34;;;18.53;92.85
65897;BME280;52677;50.898;10.854;2023-09-19T10:50:27;98178.28;;;18.57;94.65
65897;BME280;52677;50.898;10.854;2023-09-19T10:52:32;98176.88;;;18.65;95.85